Addyston, OH

8:38 PM EDT on August 27, 2014 (GMT -0400)
Miami Township | Change Station
CLOSE
Current Station
Personal Weather Station
Location: Cincinnati, OH
Elevation: 817 ft
Nearby Weather Stations

Elev 817 ft 39.14 °N, 84.70 °W | Updated 3 seconds ago

Partly Cloudy
Partly Cloudy
82.2 °F
Feels Like 89 °F
N
0.0
Wind Variable Wind from SSW
Gusts 1.0 mph

Today
High -- | Low -- °F
--% Chance of Precip.
Yesterday
High -- | Low -- °F
Precip. -- in
7:02 AM 8:16 PM
Waxing Crescent, 5% visible
Pressure 30.00 in
Visibility 9.0 miles
Clouds Few 4000 ft
Mostly Cloudy 20000 ft
Heat Index 89 °F
Dew Point 74 °F
Humidity 77%
Rainfall 0.00 in
Snow Depth Not available.
UV 0 out of 12
Pollen 10.70 out of 12
Ozone Good
PM2.5 Moderate
Flu Activity Not available.
METAR KCVG 272352Z 33005KT 9SM FEW040 BKN200 29/21 A3003 RMK AO2 SLP159 CB DSNT SE MOV SE T02940206 10333 20294 53000

More Conditions Fewer Conditions

Pressure 30.00 in
Visibility 9.0 miles
Clouds Few 4000 ft
Mostly Cloudy 20000 ft
Heat Index 89 °F
Dew Point 74 °F
Humidity 77%
Rainfall 0.00 in
Snow Depth Not available.
UV 0 out of 12
Pollen 10.70 out of 12
Ozone Good
PM2.5 Moderate
Flu Activity Not available.
METAR KCVG 272352Z 33005KT 9SM FEW040 BKN200 29/21 A3003 RMK AO2 SLP159 CB DSNT SE MOV SE T02940206 10333 20294 53000

More Conditions Fewer Conditions

10-Day Weather Forecast

Almanac

Astronomy

Aug. 27, 2014 Rise Set
Actual Time 7:02 AM EDT 8:16 PM EDT
Civil Twilight 6:35 AM EDT 8:44 PM EDT
Nautical Twilight 6:02 AM EDT 9:17 PM EDT
Astronomical Twilight 5:27 AM EDT 9:52 PM EDT
Moon 8:57 AM EDT (8/27) 9:10 PM EDT (8/27)
Length of Visible Light 14h 09m
Length of Day
13h 14m
Tomorrow will be 2m 25s shorter.
Waxing Crescent, 5% of the Moon is Illuminated
Today
Waxing Crescent
Sep 2
First Quarter
Sep 8
Full
Sep 15
Last Quarter
Sep 24
New

Today's Extremes

State Highs State Lows

Community

WunderPhotos

Upload Photos

1,747,836 photos uploaded!

Nearby

Air Quality

  Air Quality AQ Index Pollutant
Yesterday Moderate
OZONE
Yesterday Good
PM10
Current Moderate
PM2.5
Current Good
OZONE
Wednesday Moderate
PM2.5
Wednesday Moderate
OZONE
Thursday Moderate
OZONE
Thursday Moderate
PM2.5

Snow Depth

Station Depth Elevation
No new snow has been reported.

Earthquake Activity

City Distance Mag. Time & Date
No recent earthquake activity has been reported nearby.
Minimum magnitude displayed is 2.5.

Coastal Water Temperatures

Place Temperature
No Stations Reporting

Nearby Weather Stations